Time;durP1;ratioP1;P1;durP2;ratioP2;P2;SDS_P1;SDS_P2;PMS_P1;PMS_P2;Temp;Humidity;BMP_temperature;BMP_pressure;BME280_temperature;BME280_humidity;BME280_pressure;Samples;Min_cycle;Max_cycle;Signal;HPM_P1;HPM_P2
2020/12/03 00:04:50;;;;;;;27.30;13.27;;;;;6.30;100425.00;;;;10133570;29;20629;-78
2020/12/03 00:09:51;;;;;;;28.67;13.83;;;;;6.30;100414.00;;;;10173585;29;20211;-77
2020/12/03 00:14:54;;;;;;;25.60;12.63;;;;;6.30;100404.00;;;;10149889;29;20305;-78
2020/12/03 00:19:55;;;;;;;32.00;12.77;;;;;6.30;100386.00;;;;10160318;29;20818;-79
2020/12/03 00:24:57;;;;;;;26.30;10.77;;;;;6.30;100376.00;;;;10150643;29;20310;-79
2020/12/03 00:29:59;;;;;;;22.47;10.50;;;;;6.30;100357.00;;;;10141121;29;20257;-78
2020/12/03 00:35:02;;;;;;;27.47;10.67;;;;;6.30;100360.00;;;;10138361;29;20231;-78
2020/12/03 00:40:05;;;;;;;24.97;10.57;;;;;6.30;100343.00;;;;10150457;29;20256;-78
2020/12/03 00:45:08;;;;;;;23.30;10.47;;;;;6.30;100331.00;;;;10146669;29;20230;-83
2020/12/03 00:50:13;;;;;;;21.53;9.10;;;;;6.30;100343.00;;;;10158639;29;20309;-85
2020/12/03 00:55:15;;;;;;;27.63;9.83;;;;;6.30;100333.00;;;;10123326;29;20586;-77
2020/12/03 01:00:21;;;;;;;21.67;9.83;;;;;6.30;100321.00;;;;10139909;29;20306;-77
2020/12/03 01:05:25;;;;;;;23.50;11.63;;;;;6.40;100318.00;;;;10149457;29;20702;-77
2020/12/03 01:10:31;;;;;;;31.60;12.63;;;;;6.40;100314.00;;;;10129261;29;20206;-78
2020/12/03 01:15:33;;;;;;;26.20;11.37;;;;;6.40;100308.00;;;;10127695;29;20227;-78
2020/12/03 01:20:36;;;;;;;30.03;12.80;;;;;6.30;100300.00;;;;10165250;29;20206;-78
2020/12/03 01:25:38;;;;;;;25.10;14.00;;;;;6.40;100287.00;;;;10145163;29;20304;-79
2020/12/03 01:30:40;;;;;;;23.83;12.37;;;;;6.40;100288.00;;;;10146552;29;20254;-78
2020/12/03 01:35:42;;;;;;;33.27;14.70;;;;;6.40;100269.00;;;;10157352;29;20258;-84
2020/12/03 01:40:50;;;;;;;30.57;14.90;;;;;6.30;100265.00;;;;10159207;29;20294;-82
2020/12/03 01:45:54;;;;;;;22.97;13.43;;;;;6.30;100269.00;;;;10144101;29;20307;-86
2020/12/03 01:50:58;;;;;;;30.10;13.57;;;;;6.40;100257.00;;;;10146465;29;20222;-78
2020/12/03 01:56:19;;;;;;;25.10;12.70;;;;;6.40;100260.00;;;;10157414;29;20309;-79
2020/12/03 02:01:22;;;;;;;35.17;13.70;;;;;6.40;100261.00;;;;10145843;29;20293;-82
2020/12/03 02:06:28;;;;;;;31.83;13.57;;;;;6.30;100236.00;;;;10157244;29;20293;-85
2020/12/03 02:11:30;;;;;;;22.53;11.90;;;;;6.40;100224.00;;;;10163076;29;20214;-77
2020/12/03 02:16:41;;;;;;;25.37;12.87;;;;;6.40;100221.00;;;;10153841;29;20222;-77
2020/12/03 02:21:44;;;;;;;32.27;12.83;;;;;6.40;100210.00;;;;10171779;29;20270;-76
2020/12/03 02:26:51;;;;;;;27.83;13.47;;;;;6.40;100192.00;;;;10153490;29;20238;-81
2020/12/03 02:31:53;;;;;;;24.93;12.17;;;;;6.40;100184.00;;;;10177312;29;20316;-84
2020/12/03 02:36:58;;;;;;;26.60;13.67;;;;;6.40;100163.00;;;;10159455;29;20317;-77
2020/12/03 02:42:01;;;;;;;21.50;11.23;;;;;6.50;100144.00;;;;10173947;29;20222;-78
2020/12/03 02:47:03;;;;;;;23.80;11.33;;;;;6.40;100138.00;;;;10145423;29;20294;-77
2020/12/03 02:52:05;;;;;;;28.47;10.63;;;;;6.40;100131.00;;;;10166944;29;20242;-87
2020/12/03 02:57:08;;;;;;;26.67;12.00;;;;;6.40;100120.00;;;;10159712;29;20314;-76
2020/12/03 03:02:11;;;;;;;20.50;11.27;;;;;6.40;100109.00;;;;10153816;29;20227;-77
2020/12/03 03:07:13;;;;;;;24.33;10.90;;;;;6.40;100100.00;;;;10164384;29;20199;-78
2020/12/03 03:12:15;;;;;;;22.20;10.57;;;;;6.40;100082.00;;;;10147292;29;20218;-86
2020/12/03 03:17:17;;;;;;;18.10;10.10;;;;;6.40;100088.00;;;;10161690;29;20554;-76
2020/12/03 03:22:19;;;;;;;20.47;11.07;;;;;6.40;100076.00;;;;10174687;29;20233;-77
2020/12/03 03:27:21;;;;;;;18.70;10.63;;;;;6.40;100067.00;;;;10196378;29;20245;-77
2020/12/03 03:32:23;;;;;;;21.23;10.60;;;;;6.40;100070.00;;;;10146634;29;20593;-85
2020/12/03 03:37:25;;;;;;;23.43;11.33;;;;;6.40;100068.00;;;;10164828;29;20231;-88
2020/12/03 03:42:27;;;;;;;24.80;10.80;;;;;6.40;100053.00;;;;10145473;29;20227;-77
2020/12/03 03:47:30;;;;;;;24.27;10.27;;;;;6.40;100047.00;;;;10179732;29;20202;-77
2020/12/03 03:52:32;;;;;;;20.33;9.90;;;;;6.40;100037.00;;;;10156113;29;20255;-77
2020/12/03 03:57:34;;;;;;;21.97;10.47;;;;;6.40;100028.00;;;;10135564;29;20432;-77
2020/12/03 04:02:37;;;;;;;21.63;10.60;;;;;6.50;100026.00;;;;10159617;29;20306;-78
2020/12/03 04:07:39;;;;;;;19.77;10.43;;;;;6.40;100013.00;;;;10161359;29;20289;-84
2020/12/03 04:12:41;;;;;;;17.73;10.20;;;;;6.40;99996.00;;;;10170456;23;20365;-79
2020/12/03 04:17:43;;;;;;;20.97;11.23;;;;;6.30;99974.00;;;;10163152;29;20254;-79
2020/12/03 04:22:46;;;;;;;23.60;10.80;;;;;6.20;99963.00;;;;10168600;29;20313;-79
2020/12/03 04:27:48;;;;;;;20.93;10.53;;;;;6.10;99949.00;;;;10140214;29;20195;-80
2020/12/03 04:32:51;;;;;;;18.33;11.10;;;;;5.90;99935.00;;;;10146748;29;20246;-79
2020/12/03 04:37:53;;;;;;;18.13;10.27;;;;;5.80;99926.00;;;;10138610;29;20294;-80
2020/12/03 04:42:57;;;;;;;21.77;10.63;;;;;5.70;99939.00;;;;10147443;29;20314;-79
2020/12/03 04:48:28;;;;;;;22.70;12.40;;;;;5.80;99934.00;;;;10162379;29;20221;-80
2020/12/03 04:53:43;;;;;;;22.13;11.33;;;;;5.90;99917.00;;;;10151550;29;20226;-79
2020/12/03 04:59:11;;;;;;;21.60;10.57;;;;;5.90;99919.00;;;;10147469;29;20260;-79
2020/12/03 05:04:22;;;;;;;19.80;10.40;;;;;6.00;99911.00;;;;10173390;29;20659;-80
2020/12/03 05:09:38;;;;;;;20.27;11.80;;;;;6.00;99910.00;;;;10161474;29;20232;-80
2020/12/03 05:14:53;;;;;;;23.33;10.63;;;;;6.00;99888.00;;;;10145667;29;20289;-79
2020/12/03 05:20:16;;;;;;;20.10;10.43;;;;;6.00;99882.00;;;;10157480;29;20198;-78
2020/12/03 05:25:18;;;;;;;20.47;11.13;;;;;6.00;99864.00;;;;10144606;29;20318;-78
2020/12/03 05:30:22;;;;;;;15.70;10.13;;;;;6.00;99854.00;;;;10151788;29;20211;-82
2020/12/03 05:35:24;;;;;;;17.33;10.73;;;;;5.90;99846.00;;;;10170060;29;20229;-79
2020/12/03 05:40:26;;;;;;;23.20;11.80;;;;;5.80;99837.00;;;;10165217;29;20242;-79
2020/12/03 05:45:32;;;;;;;18.47;12.17;;;;;5.80;99826.00;;;;10143104;29;20245;-80
2020/12/03 05:50:42;;;;;;;21.57;11.97;;;;;5.70;99825.00;;;;10175782;29;20700;-79
2020/12/03 05:55:45;;;;;;;25.33;13.33;;;;;5.70;99810.00;;;;10158009;29;20312;-79
2020/12/03 06:00:49;;;;;;;20.53;12.40;;;;;5.70;99798.00;;;;10146141;29;20197;-80
2020/12/03 06:06:15;;;;;;;24.93;14.00;;;;;5.70;99790.00;;;;10165316;29;20214;-78
2020/12/03 06:11:29;;;;;;;23.87;14.80;;;;;5.70;99771.00;;;;10145290;29;20277;-83
2020/12/03 06:16:54;;;;;;;31.00;14.83;;;;;5.70;99775.00;;;;10160153;29;20261;-80
2020/12/03 06:22:01;;;;;;;24.00;13.77;;;;;5.70;99759.00;;;;10160597;29;20282;-79
2020/12/03 06:27:47;;;;;;;26.07;14.43;;;;;5.80;99747.00;;;;10144561;29;20931;-80
2020/12/03 06:33:30;;;;;;;32.47;14.10;;;;;5.80;99745.00;;;;10144131;29;20250;-78
2020/12/03 06:38:44;;;;;;;24.77;13.73;;;;;5.80;99744.00;;;;10176835;29;20246;-78
2020/12/03 06:44:36;;;;;;;23.37;13.80;;;;;5.80;99738.00;;;;10153443;29;20273;-78
2020/12/03 06:50:08;;;;;;;21.07;12.90;;;;;5.70;99730.00;;;;10180817;29;20238;-86
2020/12/03 06:55:44;;;;;;;21.63;12.90;;;;;5.70;99714.00;;;;10137706;29;20320;-85
2020/12/03 07:01:15;;;;;;;18.77;11.43;;;;;5.70;99721.00;;;;10150929;29;20225;-79
2020/12/03 07:06:46;;;;;;;19.60;12.63;;;;;5.70;99710.00;;;;10140408;29;20202;-78
2020/12/03 07:12:19;;;;;;;18.40;12.27;;;;;5.70;99698.00;;;;10170652;29;20262;-78
2020/12/03 07:17:43;;;;;;;17.37;12.17;;;;;5.70;99691.00;;;;10145033;29;20279;-78
2020/12/03 07:23:07;;;;;;;16.90;12.67;;;;;5.80;99690.00;;;;10146902;29;20231;-81
2020/12/03 07:28:23;;;;;;;18.27;11.83;;;;;5.80;99677.00;;;;10147856;29;20622;-78
2020/12/03 07:33:46;;;;;;;24.70;14.37;;;;;5.80;99671.00;;;;10159060;29;20645;-78
2020/12/03 07:39:13;;;;;;;21.00;14.90;;;;;5.90;99677.00;;;;10150774;29;20218;-79
2020/12/03 07:44:37;;;;;;;22.17;15.47;;;;;5.90;99676.00;;;;10170266;29;20704;-77
2020/12/03 07:49:41;;;;;;;28.80;16.07;;;;;6.00;99661.00;;;;10159939;29;20927;-78
2020/12/03 07:54:43;;;;;;;23.37;15.80;;;;;6.10;99656.00;;;;10146415;29;20230;-78
2020/12/03 07:59:46;;;;;;;26.53;16.93;;;;;6.20;99651.00;;;;10144840;29;20195;-82
2020/12/03 08:04:48;;;;;;;21.60;15.77;;;;;6.20;99658.00;;;;10162400;29;20256;-78
2020/12/03 08:09:50;;;;;;;24.80;16.73;;;;;6.20;99654.00;;;;10152510;29;20208;-78
2020/12/03 08:14:58;;;;;;;23.17;16.03;;;;;6.20;99640.00;;;;10141567;29;20249;-78
2020/12/03 08:20:03;;;;;;;21.63;15.47;;;;;6.30;99647.00;;;;10165545;29;20203;-76
2020/12/03 08:25:17;;;;;;;22.47;16.60;;;;;6.30;99634.00;;;;10173500;29;20236;-79
2020/12/03 08:30:41;;;;;;;23.07;16.33;;;;;6.40;99625.00;;;;10139054;29;20293;-80
2020/12/03 08:35:52;;;;;;;24.67;14.37;;;;;6.30;99619.00;;;;10141692;29;20634;-76
2020/12/03 08:40:58;;;;;;;24.00;15.53;;;;;6.40;99608.00;;;;10169248;29;20745;-76
2020/12/03 08:46:14;;;;;;;27.23;15.83;;;;;6.40;99611.00;;;;10171018;29;20855;-83
2020/12/03 08:51:18;;;;;;;19.60;14.07;;;;;6.50;99576.00;;;;10175612;29;20284;-78
2020/12/03 08:56:32;;;;;;;17.90;14.40;;;;;6.60;99578.00;;;;10169686;29;20704;-82
2020/12/03 09:01:59;;;;;;;21.80;15.07;;;;;6.60;99563.00;;;;10161889;29;20313;-77
2020/12/03 09:07:07;;;;;;;20.80;11.80;;;;;6.50;99557.00;;;;10169452;29;20193;-85
2020/12/03 09:12:13;;;;;;;20.40;12.77;;;;;6.60;99536.00;;;;10177643;29;20333;-80
2020/12/03 09:17:19;;;;;;;16.00;11.40;;;;;6.70;99523.00;;;;10146933;29;20222;-80
2020/12/03 09:22:25;;;;;;;17.97;11.97;;;;;6.80;99508.00;;;;10173692;29;20222;-84
2020/12/03 09:27:28;;;;;;;16.77;11.63;;;;;6.80;99500.00;;;;10157184;29;20202;-78
2020/12/03 09:32:32;;;;;;;16.57;10.20;;;;;6.90;99480.00;;;;10139811;29;20756;-84
2020/12/03 09:37:34;;;;;;;16.87;11.50;;;;;6.90;99476.00;;;;10155452;29;20296;-85
2020/12/03 09:42:47;;;;;;;21.23;12.30;;;;;6.80;99482.00;;;;10159598;29;20789;-78
2020/12/03 09:47:50;;;;;;;17.10;11.13;;;;;6.80;99474.00;;;;10162480;29;20725;-83
2020/12/03 09:52:54;;;;;;;14.20;8.23;;;;;6.70;99454.00;;;;10171175;29;20210;-80
2020/12/03 09:57:58;;;;;;;15.83;8.90;;;;;6.80;99451.00;;;;10164489;29;20246;-76
2020/12/03 10:03:06;;;;;;;15.27;10.93;;;;;6.70;99448.00;;;;10195239;29;20263;-76
2020/12/03 10:08:33;;;;;;;17.43;9.90;;;;;6.80;99417.00;;;;10146758;29;20613;-79
2020/12/03 10:13:55;;;;;;;17.57;10.47;;;;;6.80;99428.00;;;;10142383;29;20226;-79
2020/12/03 10:18:58;;;;;;;15.10;10.23;;;;;6.60;99423.00;;;;10174544;29;20261;-76
2020/12/03 10:24:35;;;;;;;17.27;11.77;;;;;6.60;99412.00;;;;10191791;29;20219;-78
2020/12/03 10:30:09;;;;;;;15.13;10.50;;;;;6.70;99402.00;;;;10163563;29;20730;-79
2020/12/03 10:35:11;;;;;;;16.97;10.90;;;;;6.90;99384.00;;;;10157775;29;20590;-80
2020/12/03 10:40:24;;;;;;;17.53;10.87;;;;;7.00;99366.00;;;;10163302;29;20649;-80
2020/12/03 10:45:33;;;;;;;17.90;10.80;;;;;7.00;99358.00;;;;10052294;29;20256;-80
2020/12/03 10:50:57;;;;;;;17.27;9.83;;;;;7.00;99339.00;;;;10027839;29;20206;-80
2020/12/03 10:56:04;;;;;;;14.27;10.70;;;;;7.10;99322.00;;;;10025345;29;20225;-75
2020/12/03 11:01:12;;;;;;;17.53;11.33;;;;;7.00;99315.00;;;;10058018;29;20253;-77
2020/12/03 11:06:15;;;;;;;17.00;10.40;;;;;7.00;99308.00;;;;10015532;29;20208;-78
2020/12/03 11:11:18;;;;;;;14.90;8.73;;;;;6.90;99295.00;;;;10040640;29;20236;-76
2020/12/03 11:16:25;;;;;;;14.33;8.67;;;;;6.90;99287.00;;;;10067611;29;20235;-77
2020/12/03 11:22:20;;;;;;;12.97;8.03;;;;;6.90;99272.00;;;;10071771;29;20226;-80
2020/12/03 11:27:23;;;;;;;13.53;9.10;;;;;6.80;99256.00;;;;10046910;29;20246;-77
2020/12/03 11:32:26;;;;;;;10.30;7.07;;;;;6.80;99236.00;;;;9987272;29;20229;-78
2020/12/03 11:37:28;;;;;;;10.47;7.70;;;;;6.80;99231.00;;;;10015470;29;20277;-77
2020/12/03 11:52:42;;;;;;;10.27;7.60;;;;;6.70;99187.00;;;;10023840;29;20760;-77
2020/12/03 11:57:44;;;;;;;6.43;5.77;;;;;6.70;99174.00;;;;10023724;29;20233;-78
2020/12/03 12:02:50;;;;;;;6.83;5.47;;;;;6.50;99168.00;;;;10019189;29;20228;-76
2020/12/03 12:13:16;;;;;;;8.23;6.00;;;;;6.40;99145.00;;;;10009946;29;20244;-77
2020/12/03 12:18:21;;;;;;;9.07;5.47;;;;;6.40;99123.00;;;;10040689;29;20248;-78
2020/12/03 12:23:23;;;;;;;7.20;5.70;;;;;6.40;99108.00;;;;10025829;29;21017;-78
2020/12/03 12:28:25;;;;;;;6.47;5.17;;;;;6.30;99090.00;;;;10020089;29;20213;-76
2020/12/03 12:33:27;;;;;;;5.77;4.13;;;;;6.30;99087.00;;;;10016072;29;20245;-77
2020/12/03 12:38:29;;;;;;;10.67;9.33;;;;;6.20;99084.00;;;;10001178;29;20324;-76
2020/12/03 12:43:31;;;;;;;7.03;5.27;;;;;6.20;99068.00;;;;10040963;29;20236;-76
2020/12/03 12:48:34;;;;;;;7.37;5.40;;;;;6.20;99058.00;;;;10009678;29;20209;-76
2020/12/03 12:53:36;;;;;;;9.60;5.83;;;;;6.30;99030.00;;;;10005757;29;20228;-76
2020/12/03 12:58:38;;;;;;;30.40;23.17;;;;;6.40;99011.00;;;;10024400;29;20300;-76
2020/12/03 13:03:40;;;;;;;5.33;4.83;;;;;6.40;99008.00;;;;10022450;29;20304;-77
2020/12/03 13:08:42;;;;;;;8.80;4.93;;;;;6.40;99001.00;;;;10014551;29;20213;-76
2020/12/03 13:13:45;;;;;;;5.10;3.80;;;;;6.30;98982.00;;;;10002921;29;20229;-76
2020/12/03 13:18:47;;;;;;;9.57;6.50;;;;;6.20;98963.00;;;;10040396;29;22228;-77
2020/12/03 13:23:49;;;;;;;5.60;3.10;;;;;6.20;98961.00;;;;10034553;29;20222;-77
2020/12/03 13:28:52;;;;;;;3.70;3.00;;;;;6.10;98954.00;;;;10031571;29;20202;-78
2020/12/03 13:33:55;;;;;;;4.10;3.00;;;;;6.10;98935.00;;;;10021047;29;20299;-77
2020/12/03 13:38:57;;;;;;;4.80;3.53;;;;;6.10;98931.00;;;;10035151;29;20305;-77
2020/12/03 13:43:59;;;;;;;6.37;3.50;;;;;6.20;98913.00;;;;10041267;29;20234;-78
2020/12/03 13:49:06;;;;;;;6.07;4.20;;;;;6.40;98893.00;;;;10016162;29;20225;-79
2020/12/03 13:54:09;;;;;;;7.37;5.90;;;;;6.50;98883.00;;;;9997165;29;20224;-77
2020/12/03 13:59:11;;;;;;;7.53;4.30;;;;;6.60;98852.00;;;;10048180;29;20261;-77
2020/12/03 14:04:15;;;;;;;8.67;5.03;;;;;6.50;98843.00;;;;10044128;29;20230;-77
2020/12/03 14:09:18;;;;;;;7.13;3.80;;;;;6.40;98830.00;;;;10034164;29;20209;-78
2020/12/03 14:14:20;;;;;;;6.70;4.20;;;;;6.40;98813.00;;;;10051077;29;20229;-78
2020/12/03 14:19:22;;;;;;;8.97;3.87;;;;;6.40;98797.00;;;;10014044;29;20233;-77
2020/12/03 14:24:24;;;;;;;6.13;4.57;;;;;6.40;98779.00;;;;10034758;29;20256;-78
2020/12/03 14:29:28;;;;;;;6.07;4.50;;;;;6.40;98771.00;;;;10028888;29;20218;-80
2020/12/03 14:34:32;;;;;;;8.40;4.77;;;;;6.40;98756.00;;;;10029413;29;20237;-79
2020/12/03 14:39:34;;;;;;;8.40;5.80;;;;;6.40;98757.00;;;;10042269;29;20236;-77
2020/12/03 14:44:36;;;;;;;7.67;5.23;;;;;6.30;98748.00;;;;10044401;29;20302;-80
2020/12/03 14:49:38;;;;;;;5.87;4.67;;;;;6.30;98733.00;;;;10048111;29;20620;-78
2020/12/03 14:54:40;;;;;;;8.00;4.97;;;;;6.30;98709.00;;;;9996097;29;20293;-79
2020/12/03 14:59:42;;;;;;;8.73;5.13;;;;;6.20;98702.00;;;;10020723;29;20258;-78
2020/12/03 15:04:45;;;;;;;9.43;5.17;;;;;6.20;98687.00;;;;10043736;29;20340;-78
2020/12/03 15:09:50;;;;;;;7.20;5.87;;;;;6.10;98679.00;;;;10016446;29;20209;-80
2020/12/03 15:14:52;;;;;;;9.73;5.47;;;;;6.10;98671.00;;;;10011277;29;20245;-80
2020/12/03 15:19:54;;;;;;;9.10;5.23;;;;;6.10;98647.00;;;;10010905;29;20233;-79
2020/12/03 15:24:56;;;;;;;10.23;5.67;;;;;6.00;98619.00;;;;10040002;29;20696;-79
2020/12/03 15:29:59;;;;;;;7.80;5.80;;;;;5.90;98614.00;;;;10013858;29;20740;-80
2020/12/03 15:35:01;;;;;;;7.17;5.20;;;;;5.90;98592.00;;;;10039665;29;20217;-80
2020/12/03 15:40:04;;;;;;;7.50;4.93;;;;;5.90;98586.00;;;;10060819;29;20961;-79
2020/12/03 15:45:06;;;;;;;10.13;5.63;;;;;5.90;98577.00;;;;10029296;29;20527;-78
2020/12/03 15:50:09;;;;;;;6.27;4.43;;;;;5.90;98570.00;;;;10030068;29;20262;-81
2020/12/03 15:55:10;;;;;;;6.20;4.50;;;;;5.90;98570.00;;;;10046670;29;20641;-80
2020/12/03 16:00:13;;;;;;;7.17;4.47;;;;;5.90;98547.00;;;;10043661;29;20324;-78
2020/12/03 16:05:30;;;;;;;6.00;4.37;;;;;5.90;98546.00;;;;10034847;29;20216;-81
2020/12/03 16:10:34;;;;;;;6.63;3.67;;;;;5.90;98534.00;;;;10050612;29;20211;-80
2020/12/03 16:15:36;;;;;;;3.43;3.13;;;;;5.90;98510.00;;;;10032266;29;20278;-78
2020/12/03 16:20:38;;;;;;;4.43;3.57;;;;;5.90;98501.00;;;;10059220;29;20277;-79
2020/12/03 16:25:40;;;;;;;4.00;3.27;;;;;5.90;98496.00;;;;10035877;29;20613;-78
2020/12/03 16:30:47;;;;;;;3.73;2.80;;;;;5.80;98472.00;;;;10044441;29;20661;-79
2020/12/03 16:35:50;;;;;;;3.33;2.70;;;;;5.80;98455.00;;;;10042236;29;20696;-79
2020/12/03 16:40:57;;;;;;;4.57;3.27;;;;;5.80;98439.00;;;;10034201;29;20242;-78
2020/12/03 16:46:00;;;;;;;2.23;2.00;;;;;5.70;98427.00;;;;10046343;29;20672;-77
2020/12/03 16:51:02;;;;;;;3.10;2.43;;;;;5.80;98424.00;;;;10044531;29;20245;-79
2020/12/03 16:56:04;;;;;;;1.87;1.73;;;;;5.80;98396.00;;;;10056572;29;20237;-77
2020/12/03 17:01:10;;;;;;;2.23;1.50;;;;;5.80;98399.00;;;;10029359;29;20260;-79
2020/12/03 17:06:12;;;;;;;1.30;1.20;;;;;5.80;98384.00;;;;10020588;29;20288;-77
2020/12/03 17:11:14;;;;;;;2.17;1.23;;;;;5.80;98372.00;;;;10064833;29;20280;-78
2020/12/03 17:16:18;;;;;;;3.67;1.87;;;;;5.80;98355.00;;;;10033056;29;20259;-77
2020/12/03 17:21:20;;;;;;;1.93;1.53;;;;;5.80;98350.00;;;;10031894;29;20248;-78
2020/12/03 17:26:22;;;;;;;3.63;2.30;;;;;5.70;98339.00;;;;10026098;29;20221;-78
2020/12/03 17:31:24;;;;;;;3.40;2.37;;;;;5.70;98327.00;;;;10048776;29;20968;-78
2020/12/03 17:36:26;;;;;;;5.17;4.70;;;;;5.70;98318.00;;;;10054895;29;20316;-78
2020/12/03 17:41:28;;;;;;;22.63;20.23;;;;;5.70;98302.00;;;;10035374;29;20575;-78
2020/12/03 17:46:31;;;;;;;1.60;1.50;;;;;5.80;98283.00;;;;10038225;29;20213;-78
2020/12/03 17:51:33;;;;;;;2.07;1.33;;;;;5.80;98270.00;;;;10039746;29;20240;-79
2020/12/03 17:56:49;;;;;;;2.00;1.80;;;;;5.80;98267.00;;;;10016844;29;20236;-76
2020/12/03 18:01:51;;;;;;;1.73;1.40;;;;;5.80;98254.00;;;;10006539;29;20232;-79
2020/12/03 18:06:57;;;;;;;1.40;1.30;;;;;5.80;98249.00;;;;10031592;29;20236;-77
2020/12/03 18:11:59;;;;;;;2.77;1.40;;;;;5.80;98249.00;;;;10027941;29;20244;-78
2020/12/03 18:17:01;;;;;;;2.90;1.60;;;;;5.80;98228.00;;;;10023605;29;20318;-75
2020/12/03 18:22:03;;;;;;;1.87;1.67;;;;;5.80;98226.00;;;;10044022;29;20296;-77
2020/12/03 18:27:06;;;;;;;1.57;1.07;;;;;5.80;98211.00;;;;10021705;29;20233;-75
2020/12/03 18:32:18;;;;;;;1.80;1.50;;;;;5.80;98197.00;;;;10005028;29;20315;-79
2020/12/03 18:37:20;;;;;;;1.93;1.83;;;;;5.70;98192.00;;;;10053068;29;20522;-80
2020/12/03 18:42:28;;;;;;;1.80;1.20;;;;;5.70;98174.00;;;;10049027;29;20236;-78
2020/12/03 18:47:30;;;;;;;1.47;1.33;;;;;5.70;98169.00;;;;10038792;29;20261;-78
2020/12/03 18:52:32;;;;;;;1.50;1.40;;;;;5.70;98153.00;;;;10037124;29;20948;-82
2020/12/03 18:57:37;;;;;;;1.30;1.20;;;;;5.70;98155.00;;;;10051153;29;20228;-78
2020/12/03 19:02:39;;;;;;;1.33;1.23;;;;;5.70;98152.00;;;;10030304;29;20692;-79
2020/12/03 19:07:41;;;;;;;1.90;1.40;;;;;5.70;98137.00;;;;10024342;29;20209;-77
2020/12/03 19:12:43;;;;;;;2.17;1.40;;;;;5.70;98120.00;;;;10038477;29;20222;-78
2020/12/03 19:17:45;;;;;;;1.77;1.47;;;;;5.70;98120.00;;;;10045621;29;20701;-78
2020/12/03 19:22:47;;;;;;;3.13;1.70;;;;;5.70;98108.00;;;;10070753;29;20222;-78
2020/12/03 19:27:49;;;;;;;3.10;2.10;;;;;5.70;98094.00;;;;10036097;29;20722;-79
2020/12/03 19:32:52;;;;;;;2.03;1.90;;;;;5.70;98097.00;;;;10007950;29;20230;-77
2020/12/03 19:37:54;;;;;;;4.50;2.30;;;;;5.70;98078.00;;;;10017179;29;20241;-77
2020/12/03 19:42:57;;;;;;;2.27;1.50;;;;;5.70;98069.00;;;;10014566;29;20396;-77
2020/12/03 19:47:59;;;;;;;3.77;1.53;;;;;5.70;98058.00;;;;10048553;29;20206;-78
2020/12/03 19:53:01;;;;;;;1.90;1.60;;;;;5.70;98054.00;;;;10042792;29;20308;-77
2020/12/03 19:58:06;;;;;;;3.20;1.90;;;;;5.70;98033.00;;;;10011961;29;20229;-80
2020/12/03 20:03:08;;;;;;;2.43;1.47;;;;;5.70;98030.00;;;;10031144;29;20912;-78
2020/12/03 20:08:10;;;;;;;1.40;1.30;;;;;5.70;98028.00;;;;10026624;29;20744;-80
2020/12/03 20:13:12;;;;;;;1.10;0.87;;;;;5.70;98010.00;;;;10052152;29;20307;-80
2020/12/03 20:18:14;;;;;;;1.40;1.30;;;;;5.80;98002.00;;;;10049471;29;20237;-79
2020/12/03 20:23:16;;;;;;;1.57;1.47;;;;;5.70;98002.00;;;;10060288;29;20237;-79
2020/12/03 20:28:18;;;;;;;1.90;1.60;;;;;5.70;97985.00;;;;10048848;29;20233;-78
2020/12/03 20:33:20;;;;;;;2.33;1.23;;;;;5.70;97982.00;;;;10044272;29;20233;-78
2020/12/03 20:38:22;;;;;;;1.47;1.37;;;;;5.70;97961.00;;;;10030791;29;20239;-78
2020/12/03 20:43:25;;;;;;;1.70;1.60;;;;;5.70;97961.00;;;;10039801;29;20229;-77
2020/12/03 20:48:29;;;;;;;2.40;1.47;;;;;5.70;97947.00;;;;10036933;29;20236;-79
2020/12/03 20:53:31;;;;;;;2.47;1.50;;;;;5.60;97942.00;;;;10032569;29;20233;-78
2020/12/03 20:58:33;;;;;;;2.00;1.80;;;;;5.60;97931.00;;;;10047118;29;20229;-79
2020/12/03 21:03:35;;;;;;;1.77;1.30;;;;;5.60;97928.00;;;;10029752;29;20256;-78
2020/12/03 21:08:37;;;;;;;1.20;1.10;;;;;5.60;97920.00;;;;10044577;29;20268;-78
2020/12/03 21:13:39;;;;;;;1.47;1.23;;;;;5.60;97914.00;;;;10040676;29;20645;-81
2020/12/03 21:18:41;;;;;;;1.80;1.27;;;;;5.60;97898.00;;;;10026045;29;20248;-80
2020/12/03 21:23:44;;;;;;;1.33;1.23;;;;;5.60;97891.00;;;;10038340;29;20783;-80
2020/12/03 21:28:46;;;;;;;1.37;1.27;;;;;5.60;97881.00;;;;10025176;29;20216;-79
2020/12/03 21:33:48;;;;;;;2.53;1.60;;;;;5.60;97866.00;;;;10040736;29;20316;-79
2020/12/03 21:38:50;;;;;;;1.33;1.20;;;;;5.60;97853.00;;;;10035699;29;20233;-80
2020/12/03 21:43:52;;;;;;;2.70;1.40;;;;;5.60;97844.00;;;;10044662;29;20307;-78
2020/12/03 21:48:54;;;;;;;1.53;1.40;;;;;5.60;97829.00;;;;10035898;29;20229;-80
2020/12/03 21:53:57;;;;;;;1.40;1.30;;;;;5.60;97809.00;;;;10025420;29;20233;-76
2020/12/03 21:58:59;;;;;;;1.97;1.33;;;;;5.60;97815.00;;;;10045297;29;20296;-75
2020/12/03 22:04:01;;;;;;;2.40;1.70;;;;;5.60;97802.00;;;;10032348;29;20231;-78
2020/12/03 22:09:03;;;;;;;2.03;1.40;;;;;5.60;97801.00;;;;10044338;29;20224;-77
2020/12/03 22:14:05;;;;;;;2.40;2.17;;;;;5.60;97788.00;;;;10032303;29;20311;-78
2020/12/03 22:19:07;;;;;;;2.07;1.80;;;;;5.60;97766.00;;;;10025448;29;20313;-77
2020/12/03 22:24:09;;;;;;;1.90;1.43;;;;;5.60;97758.00;;;;10026089;29;20252;-78
2020/12/03 22:29:11;;;;;;;2.00;1.57;;;;;5.60;97739.00;;;;10024423;29;20299;-77
2020/12/03 22:34:13;;;;;;;2.57;1.67;;;;;5.60;97736.00;;;;10019603;29;20316;-77
2020/12/03 22:39:15;;;;;;;2.13;1.80;;;;;5.60;97723.00;;;;10043546;29;20244;-79
2020/12/03 22:44:18;;;;;;;2.00;1.80;;;;;5.60;97710.00;;;;10043601;29;20877;-78
2020/12/03 22:49:20;;;;;;;2.87;1.73;;;;;5.60;97704.00;;;;10060825;29;20296;-78
2020/12/03 22:54:22;;;;;;;1.97;1.70;;;;;5.60;97686.00;;;;10020968;29;20655;-81
2020/12/03 22:59:24;;;;;;;1.80;1.70;;;;;5.60;97674.00;;;;10022284;29;20297;-77
2020/12/03 23:04:27;;;;;;;2.17;1.40;;;;;5.50;97653.00;;;;10044291;29;20243;-76
2020/12/03 23:09:29;;;;;;;1.80;1.57;;;;;5.50;97645.00;;;;9999018;29;20205;-78
2020/12/03 23:14:31;;;;;;;1.83;1.70;;;;;5.50;97626.00;;;;10022706;29;20340;-77
2020/12/03 23:19:34;;;;;;;2.10;1.70;;;;;5.50;97626.00;;;;10050151;29;20259;-81
2020/12/03 23:24:37;;;;;;;1.80;1.70;;;;;5.50;97604.00;;;;10020588;29;20264;-79
2020/12/03 23:29:39;;;;;;;2.43;1.97;;;;;5.50;97601.00;;;;10053338;29;20208;-79
2020/12/03 23:34:41;;;;;;;1.93;1.67;;;;;5.50;97591.00;;;;10030725;29;20867;-76
2020/12/03 23:39:43;;;;;;;2.73;2.43;;;;;5.50;97570.00;;;;10018839;29;20242;-74
2020/12/03 23:44:45;;;;;;;2.27;1.83;;;;;5.50;97557.00;;;;10037778;29;20298;-75
2020/12/03 23:50:14;;;;;;;2.10;1.90;;;;;5.50;97543.00;;;;10112730;23;20202;31
2020/12/03 23:55:46;;;;;;;1.80;1.63;;;;;5.50;97526.00;;;;10089620;29;20267;-89
